createdAt,value
2022-09-18T00:06:39.661Z,8.00
2022-09-18T00:33:45.294Z,8.10
2022-09-18T00:45:07.064Z,8.10
2022-09-18T00:51:26.464Z,8.20
2022-09-18T00:57:37.417Z,8.20
2022-09-18T01:49:32.226Z,8.40
2022-09-18T02:49:17.980Z,8.20
2022-09-18T02:54:11.985Z,8.10
2022-09-18T02:59:42.044Z,8.10
2022-09-18T03:04:31.143Z,8.10
2022-09-18T03:09:25.880Z,8.10
2022-09-18T03:14:27.251Z,8.10
2022-09-18T03:19:12.028Z,8.10
2022-09-18T03:24:01.819Z,8.10
2022-09-18T03:28:48.782Z,8.10
2022-09-18T03:33:36.291Z,8.10
2022-09-18T03:39:27.654Z,8.00
2022-09-18T03:45:04.091Z,8.10
2022-09-18T03:49:57.240Z,8.10
2022-09-18T03:54:58.145Z,8.10
2022-09-18T04:00:00.128Z,8.10
2022-09-18T04:05:20.404Z,8.10
2022-09-18T04:10:22.974Z,7.90
2022-09-18T04:15:12.696Z,7.90
2022-09-18T04:20:00.185Z,7.90
2022-09-18T04:24:51.213Z,7.90
2022-09-18T04:29:36.710Z,7.90
2022-09-18T04:34:22.906Z,7.80
2022-09-18T04:39:15.786Z,7.90
2022-09-18T04:44:01.808Z,7.80
2022-09-18T04:48:49.541Z,7.80
2022-09-18T04:53:38.178Z,7.80
2022-09-18T04:58:25.687Z,7.90
2022-09-18T05:03:26.844Z,7.70
2022-09-18T05:08:14.939Z,7.80
2022-09-18T05:13:04.801Z,7.70
2022-09-18T05:17:50.422Z,7.70
2022-09-18T05:22:55.256Z,7.70
2022-09-18T05:27:46.660Z,7.60
2022-09-18T05:40:05.796Z,7.70
2022-09-18T05:46:26.656Z,7.70
2022-09-18T05:51:59.512Z,7.80
2022-09-18T05:57:01.021Z,7.90
2022-09-18T06:01:51.541Z,8.00
2022-09-18T06:07:26.084Z,7.90
2022-09-18T06:12:36.471Z,7.90
2022-09-18T06:17:20.942Z,8.00
2022-09-18T06:22:24.255Z,8.10
2022-09-18T06:27:58.957Z,8.20
2022-09-18T06:33:37.220Z,8.50
2022-09-18T06:38:41.521Z,8.90
2022-09-18T06:45:03.530Z,9.00
2022-09-18T06:49:54.688Z,8.90
2022-09-18T06:55:00.151Z,9.00
2022-09-18T07:01:23.259Z,9.10
2022-09-18T07:06:40.177Z,9.20
2022-09-18T07:12:17.931Z,9.50
2022-09-18T07:17:40.549Z,9.60
2022-09-18T07:22:57.670Z,9.60
2022-09-18T07:35:00.197Z,9.50
2022-09-18T07:41:08.707Z,9.50
2022-09-18T07:46:12.517Z,10.00
2022-09-18T07:51:01.516Z,10.00
2022-09-18T08:02:22.032Z,10.20
2022-09-18T08:07:47.846Z,10.70
2022-09-18T08:13:05.383Z,10.70
2022-09-18T08:18:08.689Z,11.10
2022-09-18T08:31:12.570Z,10.90
2022-09-18T08:36:18.828Z,11.00
2022-09-18T08:41:41.966Z,11.30
2022-09-18T08:47:12.510Z,11.80
2022-09-18T09:37:19.262Z,12.50
2022-09-18T09:48:02.464Z,12.70
2022-09-18T13:19:13.755Z,13.10
2022-09-18T13:25:17.166Z,13.40
2022-09-18T14:53:09.948Z,11.00
2022-09-18T15:04:36.969Z,10.30
2022-09-18T15:09:25.567Z,10.00
2022-09-18T15:14:45.560Z,9.80
2022-09-18T15:20:16.976Z,9.60
2022-09-18T15:25:21.210Z,9.50
2022-09-18T15:30:22.348Z,9.40
2022-09-18T15:41:42.882Z,9.20
2022-09-18T15:59:33.337Z,9.30
2022-09-18T16:11:13.942Z,9.20
2022-09-18T16:16:33.984Z,9.20
2022-09-18T16:21:21.052Z,9.20
2022-09-18T16:26:46.546Z,9.20
2022-09-18T16:32:23.565Z,9.20
2022-09-18T16:48:54.189Z,9.10
2022-09-18T17:07:14.068Z,8.90
2022-09-18T17:12:06.765Z,8.80
2022-09-18T17:17:56.184Z,8.70
2022-09-18T17:23:34.388Z,8.70
2022-09-18T17:34:47.821Z,8.60
2022-09-18T17:54:45.700Z,8.30
2022-09-18T18:12:46.577Z,8.10
2022-09-18T18:18:06.954Z,7.90
2022-09-18T18:29:54.696Z,7.90
2022-09-18T18:34:46.890Z,7.80
2022-09-18T18:44:33.208Z,8.00
2022-09-18T18:49:51.688Z,7.90
2022-09-18T19:01:22.665Z,7.70
2022-09-18T19:06:15.477Z,7.70
2022-09-18T19:11:41.445Z,7.60
2022-09-18T19:16:50.557Z,7.60
2022-09-18T19:22:07.426Z,7.50
2022-09-18T19:37:22.573Z,7.60
2022-09-18T19:42:15.106Z,7.60
2022-09-18T19:47:14.129Z,7.40
2022-09-18T19:52:50.771Z,7.40
2022-09-18T20:15:32.072Z,7.40
2022-09-18T20:33:41.878Z,7.30
2022-09-18T20:45:08.859Z,7.10
